Usman', Russia
Current Conditions -  °F | °C
As of 5:00 AM on Tuesday 25 Nov 2014 (Local Time) from UUOO Reporting Station
Overcast Overcast  
Wind Chill: 15°   Ceiling: 1600
Heat Index: 21°   Visibility: 6mi
Dew Point: 10°   Wind: 4mph
Humidity: 63%   Direction: NA
Pressure: 30.71"   Gusts: NA
Location:  52.04°N, 39.42°E
Report Text: UUOO 250200Z VRB02MPS 9999 OVC016 M06/M12 Q1040 NOSIG RMK 12090070
Loading
Personal Weather Stations






























Interactive Weather Map New forecast layout! Learn more

10-Day Weather Forecast

Advertisements
Track Severe Weather on mobile